sensor_id;sensor_type;location;lat;lon;timestamp;pressure;altitude;pressure_sealevel;temperature;humidity
47280;BME280;34064;44.942;0.008;2022-10-23T00:01:29;97816.25;;;22.93;51.88
47280;BME280;34064;44.942;0.008;2022-10-23T00:04:02;97816.25;;;22.93;51.97
47280;BME280;34064;44.942;0.008;2022-10-23T00:06:30;97795.50;;;22.87;52.50
47280;BME280;34064;44.942;0.008;2022-10-23T00:08:57;97768.88;;;22.84;53.32
47280;BME280;34064;44.942;0.008;2022-10-23T00:11:25;97754.72;;;22.82;53.12
47280;BME280;34064;44.942;0.008;2022-10-23T00:13:55;97754.94;;;22.80;53.43
47280;BME280;34064;44.942;0.008;2022-10-23T00:16:21;97751.44;;;22.80;53.43
47280;BME280;34064;44.942;0.008;2022-10-23T00:18:48;97743.13;;;22.74;53.62
47280;BME280;34064;44.942;0.008;2022-10-23T00:21:15;97736.28;;;22.72;53.47
47280;BME280;34064;44.942;0.008;2022-10-23T00:23:43;97744.03;;;22.68;53.65
47280;BME280;34064;44.942;0.008;2022-10-23T00:26:10;97748.81;;;22.66;53.70
47280;BME280;34064;44.942;0.008;2022-10-23T00:28:41;97738.44;;;22.63;53.65
47280;BME280;34064;44.942;0.008;2022-10-23T00:31:08;97731.16;;;22.64;53.90
47280;BME280;34064;44.942;0.008;2022-10-23T00:33:34;97727.47;;;22.58;54.29
47280;BME280;34064;44.942;0.008;2022-10-23T00:36:07;97732.88;;;22.58;53.82
47280;BME280;34064;44.942;0.008;2022-10-23T00:38:34;97738.34;;;22.51;54.19
47280;BME280;34064;44.942;0.008;2022-10-23T00:41:01;97733.75;;;22.52;54.04
47280;BME280;34064;44.942;0.008;2022-10-23T00:43:29;97738.34;;;22.51;54.01
47280;BME280;34064;44.942;0.008;2022-10-23T00:45:56;97733.75;;;22.52;53.94
47280;BME280;34064;44.942;0.008;2022-10-23T00:48:23;97735.09;;;22.42;54.60
47280;BME280;34064;44.942;0.008;2022-10-23T00:50:50;97722.31;;;22.50;53.72
47280;BME280;34064;44.942;0.008;2022-10-23T00:53:18;97730.00;;;22.53;53.51
47280;BME280;34064;44.942;0.008;2022-10-23T00:55:47;97720.91;;;22.47;53.92
47280;BME280;34064;44.942;0.008;2022-10-23T00:58:16;97714.88;;;22.45;53.88
47280;BME280;34064;44.942;0.008;2022-10-23T01:00:52;97735.84;;;22.50;53.58
47280;BME280;34064;44.942;0.008;2022-10-23T01:03:20;97725.03;;;22.50;53.63
47280;BME280;34064;44.942;0.008;2022-10-23T01:06:12;97729.22;;;22.46;53.65
47280;BME280;34064;44.942;0.008;2022-10-23T01:08:44;97722.16;;;22.44;53.56
47280;BME280;34064;44.942;0.008;2022-10-23T01:11:28;97731.56;;;22.35;53.66
47280;BME280;34064;44.942;0.008;2022-10-23T01:14:13;97721.78;;;22.34;53.53
47280;BME280;34064;44.942;0.008;2022-10-23T01:22:51;97737.84;;;22.29;53.69
47280;BME280;34064;44.942;0.008;2022-10-23T01:25:44;97738.50;;;22.24;53.80
47280;BME280;34064;44.942;0.008;2022-10-23T01:28:52;97741.88;;;22.20;53.71
47280;BME280;34064;44.942;0.008;2022-10-23T01:31:15;97747.28;;;22.20;53.40
47280;BME280;34064;44.942;0.008;2022-10-23T01:33:48;97746.84;;;22.23;53.58
47280;BME280;34064;44.942;0.008;2022-10-23T01:36:20;97747.69;;;22.17;53.99
47280;BME280;34064;44.942;0.008;2022-10-23T01:39:23;97740.03;;;22.13;53.54
47280;BME280;34064;44.942;0.008;2022-10-23T01:41:56;97746.47;;;22.19;53.31
47280;BME280;34064;44.942;0.008;2022-10-23T01:44:48;97748.16;;;22.13;53.64
47280;BME280;34064;44.942;0.008;2022-10-23T01:47:17;97742.38;;;22.10;53.65
47280;BME280;34064;44.942;0.008;2022-10-23T01:49:46;97743.59;;;22.07;53.62
47280;BME280;34064;44.942;0.008;2022-10-23T01:52:16;97740.31;;;22.05;53.61
47280;BME280;34064;44.942;0.008;2022-10-23T01:54:44;97745.53;;;22.00;53.84
47280;BME280;34064;44.942;0.008;2022-10-23T01:57:15;97751.16;;;21.99;53.62
47280;BME280;34064;44.942;0.008;2022-10-23T02:00:12;97750.31;;;21.98;53.61
47280;BME280;34064;44.942;0.008;2022-10-23T02:02:40;97749.09;;;21.94;53.75
47280;BME280;34064;44.942;0.008;2022-10-23T02:05:10;97748.50;;;21.92;53.86
47280;BME280;34064;44.942;0.008;2022-10-23T02:07:40;97735.19;;;21.90;53.84
47280;BME280;34064;44.942;0.008;2022-10-23T02:10:08;97732.09;;;21.87;53.61
47280;BME280;34064;44.942;0.008;2022-10-23T02:15:11;97739.59;;;21.85;53.71
47280;BME280;34064;44.942;0.008;2022-10-23T02:18:07;97745.41;;;21.81;53.63
47280;BME280;34064;44.942;0.008;2022-10-23T02:20:51;97738.59;;;21.79;53.92
47280;BME280;34064;44.942;0.008;2022-10-23T02:26:14;97723.00;;;21.74;54.10
47280;BME280;34064;44.942;0.008;2022-10-23T02:28:54;97736.72;;;21.73;53.95
47280;BME280;34064;44.942;0.008;2022-10-23T02:31:23;97726.78;;;21.66;53.68
47280;BME280;34064;44.942;0.008;2022-10-23T02:33:50;97723.47;;;21.64;53.89
47280;BME280;34064;44.942;0.008;2022-10-23T02:36:18;97715.59;;;21.63;54.10
47280;BME280;34064;44.942;0.008;2022-10-23T02:38:45;97727.44;;;21.62;53.90
47280;BME280;34064;44.942;0.008;2022-10-23T02:44:18;97722.03;;;21.62;54.00
47280;BME280;34064;44.942;0.008;2022-10-23T02:49:33;97711.63;;;21.59;54.08
47280;BME280;34064;44.942;0.008;2022-10-23T02:52:20;97718.28;;;21.56;53.79
47280;BME280;34064;44.942;0.008;2022-10-23T02:55:16;97707.69;;;21.55;54.02
47280;BME280;34064;44.942;0.008;2022-10-23T02:58:00;97715.19;;;21.53;54.01
47280;BME280;34064;44.942;0.008;2022-10-23T03:00:31;97705.22;;;21.53;54.09
47280;BME280;34064;44.942;0.008;2022-10-23T03:03:16;97716.84;;;21.54;54.24
47280;BME280;34064;44.942;0.008;2022-10-23T03:05:45;97701.06;;;21.50;54.02
47280;BME280;34064;44.942;0.008;2022-10-23T03:08:13;97698.56;;;21.49;54.30
47280;BME280;34064;44.942;0.008;2022-10-23T03:10:41;97708.56;;;21.48;54.28
47280;BME280;34064;44.942;0.008;2022-10-23T03:13:09;97708.97;;;21.45;54.26
47280;BME280;34064;44.942;0.008;2022-10-23T03:15:36;97703.59;;;21.45;54.18
47280;BME280;34064;44.942;0.008;2022-10-23T03:18:02;97699.22;;;21.44;54.33
47280;BME280;34064;44.942;0.008;2022-10-23T03:20:29;97706.09;;;21.40;53.96
47280;BME280;34064;44.942;0.008;2022-10-23T03:22:55;97704.44;;;21.39;54.11
47280;BME280;34064;44.942;0.008;2022-10-23T03:25:21;97705.28;;;21.33;54.41
47280;BME280;34064;44.942;0.008;2022-10-23T03:27:47;97710.28;;;21.36;54.13
47280;BME280;34064;44.942;0.008;2022-10-23T03:30:14;97716.09;;;21.33;54.32
47280;BME280;34064;44.942;0.008;2022-10-23T03:32:40;97713.84;;;21.30;54.37
47280;BME280;34064;44.942;0.008;2022-10-23T03:35:07;97714.88;;;21.29;54.14
47280;BME280;34064;44.942;0.008;2022-10-23T03:37:33;97705.31;;;21.26;54.27
47280;BME280;34064;44.942;0.008;2022-10-23T03:39:59;97706.56;;;21.24;54.31
47280;BME280;34064;44.942;0.008;2022-10-23T03:42:26;97694.56;;;21.19;54.12
47280;BME280;34064;44.942;0.008;2022-10-23T03:44:52;97699.56;;;21.16;54.49
47280;BME280;34064;44.942;0.008;2022-10-23T03:47:20;97713.88;;;21.16;54.39
47280;BME280;34064;44.942;0.008;2022-10-23T03:49:46;97715.31;;;21.12;54.19
47280;BME280;34064;44.942;0.008;2022-10-23T03:52:12;97719.50;;;21.08;54.32
47280;BME280;34064;44.942;0.008;2022-10-23T03:54:39;97722.44;;;21.00;54.68
47280;BME280;34064;44.942;0.008;2022-10-23T03:57:05;97724.69;;;21.03;54.67
47280;BME280;34064;44.942;0.008;2022-10-23T03:59:31;97724.50;;;20.98;54.64
47280;BME280;34064;44.942;0.008;2022-10-23T04:01:57;97733.25;;;20.93;54.82
47280;BME280;34064;44.942;0.008;2022-10-23T04:04:24;97717.91;;;20.87;54.71
47280;BME280;34064;44.942;0.008;2022-10-23T04:06:50;97732.03;;;20.82;54.92
47280;BME280;34064;44.942;0.008;2022-10-23T04:09:17;97713.94;;;20.76;55.08
47280;BME280;34064;44.942;0.008;2022-10-23T04:11:43;97702.53;;;20.74;55.26
47280;BME280;34064;44.942;0.008;2022-10-23T04:14:12;97690.47;;;20.70;55.24
47280;BME280;34064;44.942;0.008;2022-10-23T04:16:38;97701.28;;;20.70;54.84
47280;BME280;34064;44.942;0.008;2022-10-23T04:19:05;97697.13;;;20.67;55.31
47280;BME280;34064;44.942;0.008;2022-10-23T04:21:31;97705.41;;;20.66;55.07
47280;BME280;34064;44.942;0.008;2022-10-23T04:23:57;97703.75;;;20.65;55.22
47280;BME280;34064;44.942;0.008;2022-10-23T04:26:24;97710.00;;;20.65;55.33
47280;BME280;34064;44.942;0.008;2022-10-23T04:28:50;97705.84;;;20.63;55.15
47280;BME280;34064;44.942;0.008;2022-10-23T04:31:16;97702.53;;;20.61;55.28
47280;BME280;34064;44.942;0.008;2022-10-23T04:33:43;97713.31;;;20.61;55.09
47280;BME280;34064;44.942;0.008;2022-10-23T04:36:09;97721.81;;;20.57;55.33
47280;BME280;34064;44.942;0.008;2022-10-23T04:38:36;97713.31;;;20.54;55.26
47280;BME280;34064;44.942;0.008;2022-10-23T04:41:03;97730.75;;;20.51;55.20
47280;BME280;34064;44.942;0.008;2022-10-23T04:43:30;97716.44;;;20.44;55.55
47280;BME280;34064;44.942;0.008;2022-10-23T04:45:57;97714.38;;;20.39;55.47
47280;BME280;34064;44.942;0.008;2022-10-23T04:48:23;97715.41;;;20.38;55.49
47280;BME280;34064;44.942;0.008;2022-10-23T04:51:01;97716.63;;;20.36;55.31
47280;BME280;34064;44.942;0.008;2022-10-23T04:53:30;97725.16;;;20.33;55.39
47280;BME280;34064;44.942;0.008;2022-10-23T04:55:58;97729.91;;;20.31;55.35
47280;BME280;34064;44.942;0.008;2022-10-23T04:58:26;97740.28;;;20.27;55.46
47280;BME280;34064;44.942;0.008;2022-10-23T05:00:53;97733.44;;;20.24;55.29
47280;BME280;34064;44.942;0.008;2022-10-23T05:03:23;97730.94;;;20.23;55.53
47280;BME280;34064;44.942;0.008;2022-10-23T05:05:52;97729.50;;;20.20;55.29
47280;BME280;34064;44.942;0.008;2022-10-23T05:08:21;97729.72;;;20.19;55.88
47280;BME280;34064;44.942;0.008;2022-10-23T05:10:49;97729.06;;;20.17;55.86
47280;BME280;34064;44.942;0.008;2022-10-23T05:13:19;97721.19;;;20.15;55.88
47280;BME280;34064;44.942;0.008;2022-10-23T05:15:48;97727.63;;;20.14;55.66
47280;BME280;34064;44.942;0.008;2022-10-23T05:18:28;97729.47;;;20.14;55.79
47280;BME280;34064;44.942;0.008;2022-10-23T05:21:13;97732.38;;;20.12;55.61
47280;BME280;34064;44.942;0.008;2022-10-23T05:23:43;97731.13;;;20.08;55.80
47280;BME280;34064;44.942;0.008;2022-10-23T05:26:10;97725.13;;;20.06;55.67
47280;BME280;34064;44.942;0.008;2022-10-23T05:28:36;97737.34;;;20.02;55.74
47280;BME280;34064;44.942;0.008;2022-10-23T05:31:05;97735.91;;;19.99;56.00
47280;BME280;34064;44.942;0.008;2022-10-23T05:33:33;97737.13;;;19.97;55.98
47280;BME280;34064;44.942;0.008;2022-10-23T05:36:00;97739.59;;;19.91;55.97
47280;BME280;34064;44.942;0.008;2022-10-23T05:38:28;97732.34;;;19.92;55.97
47280;BME280;34064;44.942;0.008;2022-10-23T05:40:58;97742.28;;;19.91;56.31
47280;BME280;34064;44.942;0.008;2022-10-23T05:43:25;97728.81;;;19.91;55.81
47280;BME280;34064;44.942;0.008;2022-10-23T05:45:52;97717.41;;;19.89;55.94
47280;BME280;34064;44.942;0.008;2022-10-23T05:48:19;97721.16;;;19.88;55.95
47280;BME280;34064;44.942;0.008;2022-10-23T05:50:45;97729.81;;;19.84;56.13
47280;BME280;34064;44.942;0.008;2022-10-23T05:53:11;97716.34;;;19.84;56.02
47280;BME280;34064;44.942;0.008;2022-10-23T05:55:38;97711.16;;;19.82;56.00
47280;BME280;34064;44.942;0.008;2022-10-23T05:58:05;97704.09;;;19.81;56.24
47280;BME280;34064;44.942;0.008;2022-10-23T06:00:32;97695.38;;;19.79;55.85
47280;BME280;34064;44.942;0.008;2022-10-23T06:03:01;97699.13;;;19.78;55.85
47280;BME280;34064;44.942;0.008;2022-10-23T06:05:28;97703.03;;;19.75;56.11
47280;BME280;34064;44.942;0.008;2022-10-23T06:08:00;97687.50;;;19.71;56.21
47280;BME280;34064;44.942;0.008;2022-10-23T06:10:27;97686.03;;;19.68;56.11
47280;BME280;34064;44.942;0.008;2022-10-23T06:12:53;97695.56;;;19.64;56.46
47280;BME280;34064;44.942;0.008;2022-10-23T06:15:19;97710.25;;;19.61;56.50
47280;BME280;34064;44.942;0.008;2022-10-23T06:17:46;97698.25;;;19.57;56.71
47280;BME280;34064;44.942;0.008;2022-10-23T06:20:12;97708.00;;;19.58;56.95
47280;BME280;34064;44.942;0.008;2022-10-23T06:22:39;97702.78;;;19.57;56.84
47280;BME280;34064;44.942;0.008;2022-10-23T06:25:06;97710.69;;;19.58;57.00
47280;BME280;34064;44.942;0.008;2022-10-23T06:27:32;97701.56;;;19.59;56.81
47280;BME280;34064;44.942;0.008;2022-10-23T06:29:58;97696.19;;;19.59;56.68
47280;BME280;34064;44.942;0.008;2022-10-23T06:32:25;97716.88;;;19.59;56.71
47280;BME280;34064;44.942;0.008;2022-10-23T06:34:51;97720.81;;;19.56;57.26
47280;BME280;34064;44.942;0.008;2022-10-23T06:37:17;97707.13;;;19.51;57.35
47280;BME280;34064;44.942;0.008;2022-10-23T06:39:43;97709.41;;;19.54;57.07
47280;BME280;34064;44.942;0.008;2022-10-23T06:42:10;97719.78;;;19.57;57.35
47280;BME280;34064;44.942;0.008;2022-10-23T06:44:37;97712.75;;;19.56;57.69
47280;BME280;34064;44.942;0.008;2022-10-23T06:47:03;97717.31;;;19.62;57.38
47280;BME280;34064;44.942;0.008;2022-10-23T06:49:30;97706.53;;;19.62;57.60
47280;BME280;34064;44.942;0.008;2022-10-23T06:51:56;97711.13;;;19.69;57.25
47280;BME280;34064;44.942;0.008;2022-10-23T06:54:22;97706.59;;;19.76;57.36
47280;BME280;34064;44.942;0.008;2022-10-23T06:56:49;97699.13;;;19.78;57.17
47280;BME280;34064;44.942;0.008;2022-10-23T06:59:15;97725.66;;;19.81;57.02
47280;BME280;34064;44.942;0.008;2022-10-23T07:01:41;97716.34;;;19.84;57.28
47280;BME280;34064;44.942;0.008;2022-10-23T07:04:08;97705.81;;;19.89;57.28
47280;BME280;34064;44.942;0.008;2022-10-23T07:06:34;97704.81;;;19.97;57.13
47280;BME280;34064;44.942;0.008;2022-10-23T07:09:00;97705.84;;;20.09;57.09
47280;BME280;34064;44.942;0.008;2022-10-23T07:11:27;97700.44;;;20.16;56.92
47280;BME280;34064;44.942;0.008;2022-10-23T07:13:53;97703.38;;;20.21;56.92
47280;BME280;34064;44.942;0.008;2022-10-23T07:16:22;97689.28;;;20.25;56.66
47280;BME280;34064;44.942;0.008;2022-10-23T07:18:53;97685.75;;;20.32;56.63
47280;BME280;34064;44.942;0.008;2022-10-23T07:21:24;97680.34;;;20.38;56.69
47280;BME280;34064;44.942;0.008;2022-10-23T07:23:51;97680.94;;;20.47;56.57
47280;BME280;34064;44.942;0.008;2022-10-23T07:26:17;97683.88;;;20.52;56.71
47280;BME280;34064;44.942;0.008;2022-10-23T07:28:46;97677.84;;;20.57;56.54
47280;BME280;34064;44.942;0.008;2022-10-23T07:31:13;97677.22;;;20.62;56.14
47280;BME280;34064;44.942;0.008;2022-10-23T07:33:39;97683.03;;;20.65;56.13
47280;BME280;34064;44.942;0.008;2022-10-23T07:36:07;97689.84;;;20.68;56.21
47280;BME280;34064;44.942;0.008;2022-10-23T07:38:34;97703.34;;;20.68;56.36
47280;BME280;34064;44.942;0.008;2022-10-23T07:41:01;97700.88;;;20.73;55.99
47280;BME280;34064;44.942;0.008;2022-10-23T07:43:27;97699.19;;;20.79;55.91
47280;BME280;34064;44.942;0.008;2022-10-23T07:45:55;97696.50;;;20.85;55.78
47280;BME280;34064;44.942;0.008;2022-10-23T07:48:22;97692.53;;;20.88;55.96
47280;BME280;34064;44.942;0.008;2022-10-23T07:50:49;97691.31;;;20.91;55.90
47280;BME280;34064;44.942;0.008;2022-10-23T07:53:20;97694.19;;;20.96;55.76
47280;BME280;34064;44.942;0.008;2022-10-23T07:55:53;97684.19;;;21.03;55.57
47280;BME280;34064;44.942;0.008;2022-10-23T07:58:20;97678.38;;;21.06;55.61
47280;BME280;34064;44.942;0.008;2022-10-23T08:00:56;97672.13;;;21.12;55.39
47280;BME280;34064;44.942;0.008;2022-10-23T08:03:33;97661.31;;;21.19;55.20
47280;BME280;34064;44.942;0.008;2022-10-23T08:05:59;97646.13;;;21.25;54.84
47280;BME280;34064;44.942;0.008;2022-10-23T08:08:26;97652.53;;;21.30;55.11
47280;BME280;34064;44.942;0.008;2022-10-23T08:10:54;97651.66;;;21.37;54.88
47280;BME280;34064;44.942;0.008;2022-10-23T08:13:21;97661.81;;;21.41;54.81
47280;BME280;34064;44.942;0.008;2022-10-23T08:15:48;97655.78;;;21.46;54.82
47280;BME280;34064;44.942;0.008;2022-10-23T08:18:16;97652.81;;;21.54;54.36
47280;BME280;34064;44.942;0.008;2022-10-23T08:20:44;97657.78;;;21.64;54.13
47280;BME280;34064;44.942;0.008;2022-10-23T08:23:12;97656.09;;;21.70;54.48
47280;BME280;34064;44.942;0.008;2022-10-23T08:25:39;97662.28;;;21.77;54.21
47280;BME280;34064;44.942;0.008;2022-10-23T08:28:06;97651.84;;;21.87;54.27
47280;BME280;34064;44.942;0.008;2022-10-23T08:30:34;97655.97;;;21.90;54.24
47280;BME280;34064;44.942;0.008;2022-10-23T08:33:05;97643.06;;;21.92;53.92
47280;BME280;34064;44.942;0.008;2022-10-23T08:35:35;97660.28;;;21.97;54.13
47280;BME280;34064;44.942;0.008;2022-10-23T08:38:03;97652.56;;;22.01;53.98
47280;BME280;34064;44.942;0.008;2022-10-23T08:40:29;97657.09;;;22.07;53.52
47280;BME280;34064;44.942;0.008;2022-10-23T08:45:46;97659.19;;;22.05;53.42
47280;BME280;34064;44.942;0.008;2022-10-23T08:48:32;97652.72;;;22.06;53.24
47280;BME280;34064;44.942;0.008;2022-10-23T08:51:15;97652.94;;;22.05;53.29
47280;BME280;34064;44.942;0.008;2022-10-23T08:53:57;97648.97;;;22.07;53.22
47280;BME280;34064;44.942;0.008;2022-10-23T08:56:34;97657.94;;;22.08;53.37
47280;BME280;34064;44.942;0.008;2022-10-23T08:59:26;97654.75;;;22.11;53.13
47280;BME280;34064;44.942;0.008;2022-10-23T09:02:39;97655.56;;;22.18;53.13
47280;BME280;34064;44.942;0.008;2022-10-23T09:05:17;97663.22;;;22.21;52.93
47280;BME280;34064;44.942;0.008;2022-10-23T09:10:57;97666.91;;;22.27;52.80
47280;BME280;34064;44.942;0.008;2022-10-23T09:14:07;97670.63;;;22.33;52.63
47280;BME280;34064;44.942;0.008;2022-10-23T09:16:42;97664.38;;;22.32;52.74
47280;BME280;34064;44.942;0.008;2022-10-23T09:19:16;97681.44;;;22.33;52.61
47280;BME280;34064;44.942;0.008;2022-10-23T09:21:47;97683.31;;;22.32;52.87
47280;BME280;34064;44.942;0.008;2022-10-23T09:24:16;97680.25;;;22.28;52.96
47280;BME280;34064;44.942;0.008;2022-10-23T09:26:47;97690.22;;;22.28;53.20
47280;BME280;34064;44.942;0.008;2022-10-23T09:29:30;97686.47;;;22.29;53.16
47280;BME280;34064;44.942;0.008;2022-10-23T09:32:03;97690.22;;;22.28;53.06
47280;BME280;34064;44.942;0.008;2022-10-23T09:34:32;97689.16;;;22.29;53.06
47280;BME280;34064;44.942;0.008;2022-10-23T09:37:02;97693.53;;;22.30;53.13
47280;BME280;34064;44.942;0.008;2022-10-23T09:39:30;97679.78;;;22.32;53.22
47280;BME280;34064;44.942;0.008;2022-10-23T09:41:57;97678.06;;;22.37;53.13
47280;BME280;34064;44.942;0.008;2022-10-23T09:44:29;97677.66;;;22.40;53.30
47280;BME280;34064;44.942;0.008;2022-10-23T09:47:17;97661.81;;;22.44;52.72
47280;BME280;34064;44.942;0.008;2022-10-23T09:49:50;97660.09;;;22.50;52.70
47280;BME280;34064;44.942;0.008;2022-10-23T09:54:47;97646.91;;;22.60;52.64
47280;BME280;34064;44.942;0.008;2022-10-23T09:57:23;97665.38;;;22.63;52.47
47280;BME280;34064;44.942;0.008;2022-10-23T09:59:54;97677.41;;;22.67;52.02
47280;BME280;34064;44.942;0.008;2022-10-23T10:02:28;97679.22;;;22.73;51.81
47280;BME280;34064;44.942;0.008;2022-10-23T10:04:55;97662.09;;;22.80;51.63
47280;BME280;34064;44.942;0.008;2022-10-23T10:07:24;97685.41;;;22.81;51.73
47280;BME280;34064;44.942;0.008;2022-10-23T10:09:52;97676.00;;;22.83;52.00
47280;BME280;34064;44.942;0.008;2022-10-23T10:12:46;97687.22;;;22.87;51.79
47280;BME280;34064;44.942;0.008;2022-10-23T10:18:13;97693.38;;;22.94;51.45
47280;BME280;34064;44.942;0.008;2022-10-23T10:23:27;97685.44;;;22.99;51.30
47280;BME280;34064;44.942;0.008;2022-10-23T10:45:32;97683.31;;;23.20;51.05
47280;BME280;34064;44.942;0.008;2022-10-23T10:48:07;97684.41;;;23.19;50.66
47280;BME280;34064;44.942;0.008;2022-10-23T10:50:45;97679.88;;;23.31;50.96
47280;BME280;34064;44.942;0.008;2022-10-23T10:53:30;97674.28;;;23.45;50.38
47280;BME280;34064;44.942;0.008;2022-10-23T10:56:00;97677.72;;;23.52;50.14
47280;BME280;34064;44.942;0.008;2022-10-23T10:58:49;97661.75;;;23.62;50.21
47280;BME280;34064;44.942;0.008;2022-10-23T11:01:34;97654.94;;;23.72;49.94
47280;BME280;34064;44.942;0.008;2022-10-23T11:06:37;97646.75;;;23.90;49.19
47280;BME280;34064;44.942;0.008;2022-10-23T11:09:23;97645.03;;;23.96;49.20
47280;BME280;34064;44.942;0.008;2022-10-23T11:11:50;97645.38;;;23.99;48.92
47280;BME280;34064;44.942;0.008;2022-10-23T11:14:30;97639.63;;;24.08;48.76
47280;BME280;34064;44.942;0.008;2022-10-23T11:23:04;97624.69;;;24.41;47.47
47280;BME280;34064;44.942;0.008;2022-10-23T11:28:24;97619.69;;;24.61;47.10
47280;BME280;34064;44.942;0.008;2022-10-23T11:33:31;97630.09;;;24.88;46.32
47280;BME280;34064;44.942;0.008;2022-10-23T11:36:17;97637.25;;;25.06;45.72
47280;BME280;34064;44.942;0.008;2022-10-23T11:38:49;97623.75;;;25.23;44.63
47280;BME280;34064;44.942;0.008;2022-10-23T11:41:20;97628.03;;;25.48;43.93
47280;BME280;34064;44.942;0.008;2022-10-23T11:43:48;97608.47;;;25.63;43.91
47280;BME280;34064;44.942;0.008;2022-10-23T11:46:29;97632.50;;;25.83;43.50
47280;BME280;34064;44.942;0.008;2022-10-23T11:48:56;97631.44;;;26.01;42.93
47280;BME280;34064;44.942;0.008;2022-10-23T11:51:39;97634.63;;;26.10;43.45
47280;BME280;34064;44.942;0.008;2022-10-23T11:57:10;97598.25;;;26.34;42.91
47280;BME280;34064;44.942;0.008;2022-10-23T12:02:33;97590.06;;;26.34;42.44
47280;BME280;34064;44.942;0.008;2022-10-23T12:05:40;97575.03;;;26.31;42.42
47280;BME280;34064;44.942;0.008;2022-10-23T12:08:02;97576.22;;;26.35;41.59
47280;BME280;34064;44.942;0.008;2022-10-23T12:10:33;97570.00;;;26.40;41.76
47280;BME280;34064;44.942;0.008;2022-10-23T12:13:02;97566.63;;;26.50;41.63
47280;BME280;34064;44.942;0.008;2022-10-23T12:15:30;97577.00;;;26.53;41.54
47280;BME280;34064;44.942;0.008;2022-10-23T12:18:16;97572.13;;;26.55;41.58
47280;BME280;34064;44.942;0.008;2022-10-23T12:21:01;97565.88;;;26.76;41.11
47280;BME280;34064;44.942;0.008;2022-10-23T12:26:22;97559.75;;;27.08;40.74
47280;BME280;34064;44.942;0.008;2022-10-23T12:39:53;97555.31;;;27.52;37.66
47280;BME280;34064;44.942;0.008;2022-10-23T12:42:23;97542.47;;;27.47;38.09
47280;BME280;34064;44.942;0.008;2022-10-23T12:45:17;97555.78;;;27.44;37.48
47280;BME280;34064;44.942;0.008;2022-10-23T12:47:45;97541.63;;;27.47;37.27
47280;BME280;34064;44.942;0.008;2022-10-23T12:50:27;97540.63;;;27.53;36.78
47280;BME280;34064;44.942;0.008;2022-10-23T12:53:00;97540.06;;;27.56;36.09
47280;BME280;34064;44.942;0.008;2022-10-23T12:55:30;97545.22;;;27.52;36.38
47280;BME280;34064;44.942;0.008;2022-10-23T12:58:21;97554.28;;;27.58;36.42
47280;BME280;34064;44.942;0.008;2022-10-23T13:00:56;97533.16;;;27.76;35.77
47280;BME280;34064;44.942;0.008;2022-10-23T13:03:25;97522.53;;;27.79;35.65
47280;BME280;34064;44.942;0.008;2022-10-23T13:05:53;97512.25;;;27.86;36.08
47280;BME280;34064;44.942;0.008;2022-10-23T13:08:21;97506.84;;;27.97;35.28
47280;BME280;34064;44.942;0.008;2022-10-23T13:10:48;97512.00;;;27.93;35.90
47280;BME280;34064;44.942;0.008;2022-10-23T13:13:21;97506.88;;;28.02;35.83
47280;BME280;34064;44.942;0.008;2022-10-23T13:15:48;97500.81;;;28.27;34.48
47280;BME280;34064;44.942;0.008;2022-10-23T13:18:16;97499.44;;;28.30;34.65
47280;BME280;34064;44.942;0.008;2022-10-23T13:20:55;97492.72;;;28.48;33.53
47280;BME280;34064;44.942;0.008;2022-10-23T13:23:34;97484.59;;;28.63;32.17
47280;BME280;34064;44.942;0.008;2022-10-23T13:26:18;97498.84;;;28.71;32.42
47280;BME280;34064;44.942;0.008;2022-10-23T13:28:47;97467.75;;;28.92;32.06
47280;BME280;34064;44.942;0.008;2022-10-23T13:34:03;97469.47;;;29.35;30.90
47280;BME280;34064;44.942;0.008;2022-10-23T13:36:36;97469.50;;;29.50;29.64
47280;BME280;34064;44.942;0.008;2022-10-23T13:39:14;97457.75;;;29.55;29.44
47280;BME280;34064;44.942;0.008;2022-10-23T13:41:45;97476.06;;;29.60;29.24
47280;BME280;34064;44.942;0.008;2022-10-23T13:44:14;97474.94;;;29.71;28.73
47280;BME280;34064;44.942;0.008;2022-10-23T13:46:41;97468.69;;;29.76;28.76
47280;BME280;34064;44.942;0.008;2022-10-23T13:49:08;97465.91;;;29.86;28.13
47280;BME280;34064;44.942;0.008;2022-10-23T13:51:42;97472.22;;;29.86;28.14
47280;BME280;34064;44.942;0.008;2022-10-23T13:54:15;97465.66;;;29.98;27.67
47280;BME280;34064;44.942;0.008;2022-10-23T13:56:42;97472.75;;;30.04;26.79
47280;BME280;34064;44.942;0.008;2022-10-23T13:59:10;97464.00;;;30.02;27.04
47280;BME280;34064;44.942;0.008;2022-10-23T14:01:37;97491.38;;;29.97;27.44
47280;BME280;34064;44.942;0.008;2022-10-23T14:04:05;97479.03;;;30.04;27.05
47280;BME280;34064;44.942;0.008;2022-10-23T14:06:32;97487.00;;;30.01;27.76
47280;BME280;34064;44.942;0.008;2022-10-23T14:08:59;97488.63;;;30.07;28.14
47280;BME280;34064;44.942;0.008;2022-10-23T14:11:25;97485.31;;;30.21;27.66
47280;BME280;34064;44.942;0.008;2022-10-23T14:13:51;97511.03;;;30.25;27.78
47280;BME280;34064;44.942;0.008;2022-10-23T14:16:18;97502.25;;;30.28;27.31
47280;BME280;34064;44.942;0.008;2022-10-23T14:18:46;97514.03;;;30.28;26.84
47280;BME280;34064;44.942;0.008;2022-10-23T14:21:15;97520.03;;;30.35;26.86
47280;BME280;34064;44.942;0.008;2022-10-23T14:23:42;97513.50;;;30.31;25.98
47280;BME280;34064;44.942;0.008;2022-10-23T14:26:11;97513.50;;;30.31;26.15
47280;BME280;34064;44.942;0.008;2022-10-23T14:28:38;97530.44;;;30.33;26.13
47280;BME280;34064;44.942;0.008;2022-10-23T14:31:06;97525.53;;;30.35;26.26
47280;BME280;34064;44.942;0.008;2022-10-23T14:33:33;97521.97;;;30.30;25.91
47280;BME280;34064;44.942;0.008;2022-10-23T14:36:00;97534.31;;;30.27;26.28
47280;BME280;34064;44.942;0.008;2022-10-23T14:38:26;97534.56;;;30.31;26.41
47280;BME280;34064;44.942;0.008;2022-10-23T14:40:53;97536.75;;;30.44;26.10
47280;BME280;34064;44.942;0.008;2022-10-23T14:43:19;97542.19;;;30.65;26.19
47280;BME280;34064;44.942;0.008;2022-10-23T14:45:46;97523.00;;;30.65;25.45
47280;BME280;34064;44.942;0.008;2022-10-23T14:48:13;97512.56;;;30.67;25.89